createdAt,value
2023-05-18T00:00:19.690Z,8.95
2023-05-18T00:05:10.900Z,8.91
2023-05-18T00:10:00.664Z,8.84
2023-05-18T00:14:50.707Z,8.79
2023-05-18T00:19:46.965Z,8.78
2023-05-18T00:24:37.262Z,8.74
2023-05-18T00:29:27.153Z,8.64
2023-05-18T00:34:18.285Z,8.65
2023-05-18T00:39:13.490Z,8.62
2023-05-18T00:44:04.977Z,8.42
2023-05-18T00:48:58.141Z,8.49
2023-05-18T00:53:48.521Z,8.33
2023-05-18T00:58:41.613Z,8.31
2023-05-18T01:03:31.663Z,7.94
2023-05-18T01:08:21.632Z,8.08
2023-05-18T01:13:19.286Z,8.23
2023-05-18T01:18:17.729Z,8.24
2023-05-18T01:23:52.584Z,8.20
2023-05-18T01:28:48.816Z,8.09
2023-05-18T01:33:38.888Z,8.06
2023-05-18T01:38:31.337Z,8.11
2023-05-18T01:43:23.497Z,7.96
2023-05-18T01:48:21.583Z,7.98
2023-05-18T01:53:20.738Z,7.78
2023-05-18T01:58:13.036Z,7.69
2023-05-18T02:03:05.849Z,7.80
2023-05-18T02:07:58.529Z,7.92
2023-05-18T02:12:52.863Z,7.91
2023-05-18T02:17:43.818Z,7.87
2023-05-18T02:22:36.340Z,7.77
2023-05-18T02:27:29.002Z,7.55
2023-05-18T02:32:20.527Z,7.58
2023-05-18T02:37:10.806Z,7.56
2023-05-18T02:42:01.337Z,7.47
2023-05-18T02:46:55.237Z,7.52
2023-05-18T02:51:45.293Z,7.51
2023-05-18T02:56:36.024Z,7.52
2023-05-18T03:01:38.013Z,7.53
2023-05-18T03:06:30.847Z,7.38
2023-05-18T03:11:21.744Z,7.20
2023-05-18T03:16:12.348Z,7.28
2023-05-18T03:21:03.628Z,7.17
2023-05-18T03:25:57.107Z,7.11
2023-05-18T03:30:50.378Z,7.05
2023-05-18T03:35:41.017Z,7.02
2023-05-18T03:40:32.756Z,7.02
2023-05-18T03:45:27.977Z,7.10
2023-05-18T03:50:18.578Z,7.10
2023-05-18T03:55:09.912Z,6.91
2023-05-18T04:00:00.402Z,7.03
2023-05-18T04:04:54.297Z,7.01
2023-05-18T04:09:47.029Z,7.02
2023-05-18T04:14:36.704Z,7.05
2023-05-18T04:19:27.158Z,6.98
2023-05-18T04:24:21.581Z,7.06
2023-05-18T04:29:13.673Z,7.15
2023-05-18T04:34:03.640Z,7.21
2023-05-18T04:38:58.724Z,7.49
2023-05-18T04:43:52.649Z,7.55
2023-05-18T04:48:43.485Z,7.31
2023-05-18T04:53:34.788Z,7.25
2023-05-18T04:58:24.878Z,7.34
2023-05-18T05:03:17.635Z,7.27
2023-05-18T05:08:14.660Z,7.25
2023-05-18T05:13:04.615Z,7.10
2023-05-18T05:18:00.994Z,7.15
2023-05-18T05:22:53.749Z,7.12
2023-05-18T05:27:48.996Z,7.06
2023-05-18T05:32:51.515Z,7.11
2023-05-18T05:37:42.358Z,7.16
2023-05-18T05:42:37.840Z,7.23
2023-05-18T05:47:28.103Z,7.22
2023-05-18T05:52:18.250Z,7.19
2023-05-18T05:57:11.781Z,7.23
2023-05-18T06:02:04.621Z,7.32
2023-05-18T06:06:56.826Z,7.27
2023-05-18T06:11:47.073Z,7.66
2023-05-18T06:16:38.381Z,7.52
2023-05-18T06:21:31.823Z,7.54
2023-05-18T06:26:23.343Z,7.96
2023-05-18T06:31:28.265Z,8.03
2023-05-18T06:36:48.200Z,7.82
2023-05-18T06:41:40.457Z,7.93
2023-05-18T06:46:30.834Z,8.10
2023-05-18T06:51:26.415Z,7.98
2023-05-18T06:56:22.620Z,8.19
2023-05-18T07:01:12.877Z,8.36
2023-05-18T07:06:03.202Z,8.46
2023-05-18T07:10:53.439Z,8.79
2023-05-18T07:15:46.533Z,8.82
2023-05-18T07:20:36.532Z,9.03
2023-05-18T07:25:26.975Z,9.22
2023-05-18T07:30:19.270Z,9.31
2023-05-18T07:35:13.115Z,9.43
2023-05-18T07:40:03.002Z,9.47
2023-05-18T07:44:53.339Z,9.35
2023-05-18T07:49:43.380Z,9.65
2023-05-18T07:54:36.296Z,9.88
2023-05-18T07:59:26.360Z,9.95
2023-05-18T08:04:16.407Z,10.41
2023-05-18T08:09:06.862Z,10.63
2023-05-18T08:13:59.497Z,10.85
2023-05-18T08:18:50.128Z,11.02
2023-05-18T08:23:40.883Z,11.00
2023-05-18T08:28:32.026Z,10.93
2023-05-18T08:33:24.773Z,10.96
2023-05-18T08:38:15.156Z,10.97
2023-05-18T08:43:08.470Z,11.40
2023-05-18T08:48:00.460Z,11.64
2023-05-18T08:52:58.520Z,11.73
2023-05-18T08:57:55.846Z,11.79
2023-05-18T09:02:46.634Z,11.96
2023-05-18T09:07:37.753Z,12.14
2023-05-18T09:12:31.704Z,12.06
2023-05-18T09:17:26.430Z,13.17
2023-05-18T09:22:17.331Z,12.79
2023-05-18T09:27:08.287Z,13.05
2023-05-18T09:32:05.285Z,12.89
2023-05-18T09:36:57.993Z,13.18
2023-05-18T09:41:48.321Z,12.79
2023-05-18T09:46:39.753Z,13.16
2023-05-18T09:51:32.912Z,13.26
2023-05-18T09:56:23.390Z,13.90
2023-05-18T10:01:14.562Z,14.40
2023-05-18T10:06:07.124Z,15.37
2023-05-18T10:10:59.853Z,15.58
2023-05-18T10:15:54.319Z,15.83
2023-05-18T10:20:45.576Z,15.72
2023-05-18T10:25:37.595Z,15.69
2023-05-18T10:30:34.024Z,15.97
2023-05-18T10:35:28.542Z,16.01
2023-05-18T10:40:20.731Z,16.10
2023-05-18T10:45:13.221Z,16.03
2023-05-18T10:50:08.168Z,15.95
2023-05-18T10:54:58.181Z,15.94
2023-05-18T10:59:50.281Z,15.94
2023-05-18T11:04:42.815Z,15.82
2023-05-18T11:09:36.567Z,16.06
2023-05-18T11:14:30.540Z,16.43
2023-05-18T11:19:20.652Z,16.31
2023-05-18T11:24:18.610Z,16.41
2023-05-18T11:29:21.569Z,16.38
2023-05-18T11:34:41.140Z,16.06
2023-05-18T11:39:30.926Z,16.07
2023-05-18T11:44:25.214Z,16.08
2023-05-18T11:49:19.397Z,16.09
2023-05-18T11:54:11.846Z,16.05
2023-05-18T11:59:14.357Z,16.08
2023-05-18T12:04:07.389Z,16.37
2023-05-18T12:08:58.391Z,16.47
2023-05-18T12:13:49.249Z,16.65
2023-05-18T12:18:39.448Z,16.76
2023-05-18T12:23:41.023Z,16.97
2023-05-18T12:28:32.363Z,17.39
2023-05-18T12:33:24.304Z,17.40
2023-05-18T12:38:13.946Z,17.15
2023-05-18T12:43:06.445Z,17.13
2023-05-18T12:47:57.607Z,17.30
2023-05-18T12:52:47.619Z,17.14
2023-05-18T12:57:41.788Z,17.27
2023-05-18T13:02:37.335Z,17.12
2023-05-18T13:07:29.253Z,17.00
2023-05-18T13:12:19.179Z,17.04
2023-05-18T13:17:12.063Z,17.15
2023-05-18T13:22:04.646Z,17.12
2023-05-18T13:26:54.626Z,17.16
2023-05-18T13:31:44.799Z,17.29
2023-05-18T13:36:36.777Z,17.45
2023-05-18T13:41:29.658Z,17.27
2023-05-18T13:46:22.139Z,17.20
2023-05-18T13:51:12.118Z,17.23
2023-05-18T13:56:02.177Z,17.39
2023-05-18T14:00:54.915Z,17.32
2023-05-18T14:05:50.790Z,17.21
2023-05-18T14:10:48.059Z,17.36
2023-05-18T14:15:37.941Z,17.35
2023-05-18T14:20:30.917Z,17.15
2023-05-18T14:25:26.351Z,16.95
2023-05-18T14:30:19.528Z,16.97
2023-05-18T14:35:10.312Z,17.32
2023-05-18T14:40:11.245Z,17.25
2023-05-18T14:45:01.216Z,16.69
2023-05-18T14:54:57.630Z,13.95
2023-05-18T14:59:52.713Z,13.59
2023-05-18T15:04:44.693Z,13.21
2023-05-18T15:09:34.711Z,13.47
2023-05-18T15:14:27.475Z,13.12
2023-05-18T15:19:27.731Z,13.09
2023-05-18T15:24:20.128Z,12.95
2023-05-18T15:29:09.786Z,13.45
2023-05-18T15:33:59.396Z,13.30
2023-05-18T15:38:54.002Z,13.05
2023-05-18T15:43:45.499Z,12.98
2023-05-18T15:48:35.270Z,12.95
2023-05-18T15:53:24.855Z,12.98
2023-05-18T15:58:17.433Z,13.05
2023-05-18T16:03:07.378Z,13.19
2023-05-18T16:07:57.421Z,13.24
2023-05-18T16:12:48.955Z,13.40
2023-05-18T16:17:41.198Z,13.54
2023-05-18T16:22:31.629Z,13.68
2023-05-18T16:27:23.535Z,13.68
2023-05-18T16:32:13.428Z,13.95
2023-05-18T16:37:05.546Z,14.00
2023-05-18T16:41:55.218Z,14.04
2023-05-18T16:46:45.220Z,14.05
2023-05-18T16:51:36.140Z,14.42
2023-05-18T16:56:30.019Z,14.65
2023-05-18T17:06:15.128Z,14.90
2023-05-18T17:11:05.667Z,14.57
2023-05-18T17:15:58.676Z,14.72
2023-05-18T17:20:48.588Z,14.69
2023-05-18T17:25:38.546Z,14.77
2023-05-18T17:30:28.445Z,14.83
2023-05-18T17:35:23.145Z,14.79
2023-05-18T17:40:13.990Z,15.17
2023-05-18T17:45:03.868Z,15.30
2023-05-18T17:49:53.832Z,15.25
2023-05-18T17:54:46.289Z,15.33
2023-05-18T17:59:37.826Z,15.45
2023-05-18T18:04:27.711Z,15.45
2023-05-18T18:09:17.729Z,15.48
2023-05-18T18:14:11.666Z,15.47
2023-05-18T18:19:03.030Z,15.55
2023-05-18T18:23:52.945Z,15.50
2023-05-18T18:28:44.691Z,15.37
2023-05-18T18:33:37.338Z,15.42
2023-05-18T18:38:27.335Z,15.33
2023-05-18T18:43:17.538Z,15.25
2023-05-18T18:48:09.293Z,15.10
2023-05-18T18:53:01.854Z,15.03
2023-05-18T18:57:53.194Z,14.92
2023-05-18T19:02:44.401Z,14.84
2023-05-18T19:07:38.408Z,14.88
2023-05-18T19:12:33.496Z,14.81
2023-05-18T19:17:26.927Z,14.71
2023-05-18T19:22:17.765Z,14.22
2023-05-18T19:27:07.729Z,14.66
2023-05-18T19:32:02.448Z,14.48
2023-05-18T19:36:54.015Z,14.48
2023-05-18T19:41:44.172Z,14.42
2023-05-18T19:46:34.457Z,14.34
2023-05-18T19:51:28.364Z,14.25
2023-05-18T19:56:18.331Z,14.25
2023-05-18T20:01:10.179Z,14.12
2023-05-18T20:06:03.162Z,14.02
2023-05-18T20:10:57.834Z,13.93
2023-05-18T20:15:49.814Z,13.66
2023-05-18T20:20:40.827Z,13.83
2023-05-18T20:25:35.438Z,13.79
2023-05-18T20:30:29.541Z,13.80
2023-05-18T20:35:21.031Z,13.77
2023-05-18T20:40:14.152Z,13.73
2023-05-18T20:45:04.081Z,13.60
2023-05-18T20:49:58.835Z,13.59
2023-05-18T20:54:49.078Z,13.51
2023-05-18T20:59:39.096Z,13.46
2023-05-18T21:04:30.917Z,13.37
2023-05-18T21:09:23.355Z,13.37
2023-05-18T21:14:13.334Z,13.30
2023-05-18T21:19:03.546Z,13.08
2023-05-18T21:23:53.876Z,13.04
2023-05-18T21:28:46.638Z,13.05
2023-05-18T21:33:37.638Z,13.02
2023-05-18T21:38:27.649Z,13.04
2023-05-18T21:43:17.671Z,12.95
2023-05-18T21:48:12.001Z,12.92
2023-05-18T21:53:04.273Z,12.86
2023-05-18T21:57:54.657Z,12.79
2023-05-18T22:02:44.656Z,12.78
2023-05-18T22:07:41.160Z,12.70
2023-05-18T22:12:31.919Z,12.73
2023-05-18T22:17:22.091Z,12.60
2023-05-18T22:22:19.446Z,12.59
2023-05-18T22:27:21.890Z,12.48
2023-05-18T22:32:16.263Z,12.36
2023-05-18T22:37:06.286Z,12.40
2023-05-18T22:41:56.326Z,12.14
2023-05-18T22:46:49.381Z,12.28
2023-05-18T22:51:41.015Z,12.24
2023-05-18T22:56:31.578Z,12.24
2023-05-18T23:01:21.470Z,12.13
2023-05-18T23:06:14.211Z,12.09
2023-05-18T23:11:05.049Z,11.97
2023-05-18T23:15:56.532Z,11.86
2023-05-18T23:20:50.686Z,11.86
2023-05-18T23:25:43.297Z,11.85
2023-05-18T23:30:33.417Z,11.80
2023-05-18T23:35:24.184Z,11.67
2023-05-18T23:40:16.112Z,11.64
2023-05-18T23:45:10.835Z,11.63
2023-05-18T23:50:01.501Z,11.52
2023-05-18T23:54:55.876Z,11.50
2023-05-18T23:59:47.395Z,11.49
